sensor_id;sensor_type;location;lat;lon;timestamp;P1;durP1;ratioP1;P2;durP2;ratioP2
7669;SDS011;3877;42.562;27.636;2023-08-06T00:02:18;22.65;;;11.93;;
7669;SDS011;3877;42.562;27.636;2023-08-06T00:04:46;22.23;;;11.77;;
7669;SDS011;3877;42.562;27.636;2023-08-06T00:07:13;21.52;;;11.63;;
7669;SDS011;3877;42.562;27.636;2023-08-06T00:09:40;22.52;;;12.30;;
7669;SDS011;3877;42.562;27.636;2023-08-06T00:12:09;17.35;;;11.18;;
7669;SDS011;3877;42.562;27.636;2023-08-06T00:14:36;24.73;;;11.75;;
7669;SDS011;3877;42.562;27.636;2023-08-06T00:17:03;19.08;;;10.75;;
7669;SDS011;3877;42.562;27.636;2023-08-06T00:19:31;22.52;;;11.73;;
7669;SDS011;3877;42.562;27.636;2023-08-06T00:21:58;19.52;;;11.13;;
7669;SDS011;3877;42.562;27.636;2023-08-06T00:24:27;29.80;;;12.35;;
7669;SDS011;3877;42.562;27.636;2023-08-06T00:26:54;19.15;;;11.65;;
7669;SDS011;3877;42.562;27.636;2023-08-06T00:29:23;22.58;;;11.00;;
7669;SDS011;3877;42.562;27.636;2023-08-06T00:31:50;23.77;;;11.98;;
7669;SDS011;3877;42.562;27.636;2023-08-06T00:34:17;20.60;;;11.65;;
7669;SDS011;3877;42.562;27.636;2023-08-06T00:36:44;21.38;;;11.70;;
7669;SDS011;3877;42.562;27.636;2023-08-06T00:39:11;18.58;;;11.40;;
7669;SDS011;3877;42.562;27.636;2023-08-06T00:41:39;16.35;;;11.50;;
7669;SDS011;3877;42.562;27.636;2023-08-06T00:44:06;24.40;;;12.15;;
7669;SDS011;3877;42.562;27.636;2023-08-06T00:46:34;20.35;;;11.45;;
7669;SDS011;3877;42.562;27.636;2023-08-06T00:49:02;26.17;;;11.82;;
7669;SDS011;3877;42.562;27.636;2023-08-06T00:51:30;23.65;;;11.85;;
7669;SDS011;3877;42.562;27.636;2023-08-06T00:53:58;20.02;;;11.65;;
7669;SDS011;3877;42.562;27.636;2023-08-06T00:56:26;22.65;;;10.52;;
7669;SDS011;3877;42.562;27.636;2023-08-06T00:58:53;21.48;;;10.93;;
7669;SDS011;3877;42.562;27.636;2023-08-06T01:01:21;22.50;;;11.55;;
7669;SDS011;3877;42.562;27.636;2023-08-06T01:03:49;16.00;;;10.43;;
7669;SDS011;3877;42.562;27.636;2023-08-06T01:06:17;19.00;;;10.80;;
7669;SDS011;3877;42.562;27.636;2023-08-06T01:08:52;19.67;;;10.98;;
7669;SDS011;3877;42.562;27.636;2023-08-06T01:11:26;19.30;;;11.38;;
7669;SDS011;3877;42.562;27.636;2023-08-06T01:14:02;19.92;;;11.65;;
7669;SDS011;3877;42.562;27.636;2023-08-06T01:16:33;22.27;;;10.98;;
7669;SDS011;3877;42.562;27.636;2023-08-06T01:19:03;26.45;;;11.13;;
7669;SDS011;3877;42.562;27.636;2023-08-06T01:21:32;21.13;;;11.13;;
7669;SDS011;3877;42.562;27.636;2023-08-06T01:23:59;19.65;;;11.63;;
7669;SDS011;3877;42.562;27.636;2023-08-06T01:26:29;24.02;;;11.73;;
7669;SDS011;3877;42.562;27.636;2023-08-06T01:29:05;19.50;;;11.60;;
7669;SDS011;3877;42.562;27.636;2023-08-06T01:31:50;22.92;;;11.63;;
7669;SDS011;3877;42.562;27.636;2023-08-06T01:34:21;18.52;;;11.38;;
7669;SDS011;3877;42.562;27.636;2023-08-06T01:36:52;18.20;;;12.15;;
7669;SDS011;3877;42.562;27.636;2023-08-06T01:39:19;22.08;;;11.07;;
7669;SDS011;3877;42.562;27.636;2023-08-06T01:41:47;16.55;;;11.80;;
7669;SDS011;3877;42.562;27.636;2023-08-06T01:44:14;24.02;;;12.30;;
7669;SDS011;3877;42.562;27.636;2023-08-06T01:46:42;22.80;;;12.00;;
7669;SDS011;3877;42.562;27.636;2023-08-06T01:49:09;19.23;;;11.90;;
7669;SDS011;3877;42.562;27.636;2023-08-06T01:51:37;20.63;;;11.00;;
7669;SDS011;3877;42.562;27.636;2023-08-06T01:54:05;27.88;;;11.65;;
7669;SDS011;3877;42.562;27.636;2023-08-06T01:56:32;20.73;;;11.35;;
7669;SDS011;3877;42.562;27.636;2023-08-06T01:59:00;17.98;;;10.77;;
7669;SDS011;3877;42.562;27.636;2023-08-06T02:01:27;21.60;;;10.90;;
7669;SDS011;3877;42.562;27.636;2023-08-06T02:03:54;75.82;;;61.15;;
7669;SDS011;3877;42.562;27.636;2023-08-06T02:06:21;71.28;;;50.88;;
7669;SDS011;3877;42.562;27.636;2023-08-06T02:08:49;18.13;;;11.48;;
7669;SDS011;3877;42.562;27.636;2023-08-06T02:11:18;24.02;;;12.40;;
7669;SDS011;3877;42.562;27.636;2023-08-06T02:13:45;24.88;;;11.18;;
7669;SDS011;3877;42.562;27.636;2023-08-06T02:16:12;20.33;;;11.95;;
7669;SDS011;3877;42.562;27.636;2023-08-06T02:18:40;18.48;;;11.65;;
7669;SDS011;3877;42.562;27.636;2023-08-06T02:21:07;24.02;;;11.13;;
7669;SDS011;3877;42.562;27.636;2023-08-06T02:23:34;21.00;;;11.23;;
7669;SDS011;3877;42.562;27.636;2023-08-06T02:26:02;22.25;;;11.63;;
7669;SDS011;3877;42.562;27.636;2023-08-06T02:28:32;18.48;;;11.00;;
7669;SDS011;3877;42.562;27.636;2023-08-06T02:30:59;21.20;;;11.70;;
7669;SDS011;3877;42.562;27.636;2023-08-06T02:33:26;19.20;;;11.52;;
7669;SDS011;3877;42.562;27.636;2023-08-06T02:35:58;22.30;;;12.13;;
7669;SDS011;3877;42.562;27.636;2023-08-06T02:38:26;19.92;;;11.73;;
7669;SDS011;3877;42.562;27.636;2023-08-06T02:40:54;19.67;;;11.27;;
7669;SDS011;3877;42.562;27.636;2023-08-06T02:43:21;25.60;;;12.90;;
7669;SDS011;3877;42.562;27.636;2023-08-06T02:45:50;24.80;;;12.30;;
7669;SDS011;3877;42.562;27.636;2023-08-06T02:48:17;26.25;;;12.10;;
7669;SDS011;3877;42.562;27.636;2023-08-06T02:50:44;25.30;;;12.45;;
7669;SDS011;3877;42.562;27.636;2023-08-06T02:53:12;22.83;;;12.38;;
7669;SDS011;3877;42.562;27.636;2023-08-06T02:55:44;19.13;;;12.35;;
7669;SDS011;3877;42.562;27.636;2023-08-06T02:58:13;19.42;;;11.90;;
7669;SDS011;3877;42.562;27.636;2023-08-06T03:00:40;20.60;;;12.43;;
7669;SDS011;3877;42.562;27.636;2023-08-06T03:03:08;18.48;;;11.68;;
7669;SDS011;3877;42.562;27.636;2023-08-06T03:05:36;16.45;;;11.75;;
7669;SDS011;3877;42.562;27.636;2023-08-06T03:08:03;20.70;;;11.65;;
7669;SDS011;3877;42.562;27.636;2023-08-06T03:10:30;16.50;;;10.88;;
7669;SDS011;3877;42.562;27.636;2023-08-06T03:12:57;20.75;;;11.85;;
7669;SDS011;3877;42.562;27.636;2023-08-06T03:15:24;17.70;;;11.65;;
7669;SDS011;3877;42.562;27.636;2023-08-06T03:17:52;23.85;;;12.18;;
7669;SDS011;3877;42.562;27.636;2023-08-06T03:20:24;19.40;;;11.75;;
7669;SDS011;3877;42.562;27.636;2023-08-06T03:22:51;24.92;;;11.82;;
7669;SDS011;3877;42.562;27.636;2023-08-06T03:25:19;20.08;;;12.07;;
7669;SDS011;3877;42.562;27.636;2023-08-06T03:27:46;18.70;;;10.98;;
7669;SDS011;3877;42.562;27.636;2023-08-06T03:30:13;18.95;;;11.30;;
7669;SDS011;3877;42.562;27.636;2023-08-06T03:32:40;17.83;;;11.45;;
7669;SDS011;3877;42.562;27.636;2023-08-06T03:35:08;20.95;;;10.73;;
7669;SDS011;3877;42.562;27.636;2023-08-06T03:37:36;22.40;;;12.38;;
7669;SDS011;3877;42.562;27.636;2023-08-06T03:40:04;20.48;;;11.45;;
7669;SDS011;3877;42.562;27.636;2023-08-06T03:42:32;19.27;;;11.60;;
7669;SDS011;3877;42.562;27.636;2023-08-06T03:44:59;21.73;;;11.27;;
7669;SDS011;3877;42.562;27.636;2023-08-06T03:47:26;15.82;;;10.68;;
7669;SDS011;3877;42.562;27.636;2023-08-06T03:49:54;17.17;;;10.57;;
7669;SDS011;3877;42.562;27.636;2023-08-06T03:52:21;24.30;;;11.82;;
7669;SDS011;3877;42.562;27.636;2023-08-06T03:54:50;20.83;;;11.75;;
7669;SDS011;3877;42.562;27.636;2023-08-06T03:57:17;23.90;;;11.35;;
7669;SDS011;3877;42.562;27.636;2023-08-06T03:59:44;21.08;;;11.30;;
7669;SDS011;3877;42.562;27.636;2023-08-06T04:02:11;25.67;;;11.50;;
7669;SDS011;3877;42.562;27.636;2023-08-06T04:04:39;21.90;;;10.30;;
7669;SDS011;3877;42.562;27.636;2023-08-06T04:07:06;17.85;;;10.25;;
7669;SDS011;3877;42.562;27.636;2023-08-06T04:09:33;12.50;;;9.52;;
7669;SDS011;3877;42.562;27.636;2023-08-06T04:12:03;19.15;;;10.48;;
7669;SDS011;3877;42.562;27.636;2023-08-06T04:14:31;20.20;;;10.35;;
7669;SDS011;3877;42.562;27.636;2023-08-06T04:16:58;14.43;;;8.88;;
7669;SDS011;3877;42.562;27.636;2023-08-06T04:19:26;15.00;;;9.23;;
7669;SDS011;3877;42.562;27.636;2023-08-06T04:21:53;17.75;;;9.52;;
7669;SDS011;3877;42.562;27.636;2023-08-06T04:24:20;16.10;;;8.95;;
7669;SDS011;3877;42.562;27.636;2023-08-06T04:26:47;22.50;;;9.75;;
7669;SDS011;3877;42.562;27.636;2023-08-06T04:29:16;17.40;;;9.52;;
7669;SDS011;3877;42.562;27.636;2023-08-06T04:31:43;13.85;;;8.90;;
7669;SDS011;3877;42.562;27.636;2023-08-06T04:34:10;18.15;;;9.10;;
7669;SDS011;3877;42.562;27.636;2023-08-06T04:36:37;12.95;;;9.18;;
7669;SDS011;3877;42.562;27.636;2023-08-06T04:39:05;18.98;;;8.65;;
7669;SDS011;3877;42.562;27.636;2023-08-06T04:41:32;19.40;;;8.85;;
7669;SDS011;3877;42.562;27.636;2023-08-06T04:44:00;13.35;;;8.38;;
7669;SDS011;3877;42.562;27.636;2023-08-06T04:46:28;17.05;;;7.97;;
7669;SDS011;3877;42.562;27.636;2023-08-06T04:48:55;13.05;;;7.65;;
7669;SDS011;3877;42.562;27.636;2023-08-06T04:51:23;14.35;;;7.80;;
7669;SDS011;3877;42.562;27.636;2023-08-06T04:53:50;15.60;;;8.50;;
7669;SDS011;3877;42.562;27.636;2023-08-06T04:56:18;14.98;;;7.95;;
7669;SDS011;3877;42.562;27.636;2023-08-06T04:58:45;15.95;;;7.65;;
7669;SDS011;3877;42.562;27.636;2023-08-06T05:01:12;17.50;;;7.32;;
7669;SDS011;3877;42.562;27.636;2023-08-06T05:03:41;15.63;;;7.40;;
7669;SDS011;3877;42.562;27.636;2023-08-06T05:06:09;14.95;;;7.22;;
7669;SDS011;3877;42.562;27.636;2023-08-06T05:08:36;17.75;;;7.32;;
7669;SDS011;3877;42.562;27.636;2023-08-06T05:11:03;15.35;;;7.18;;
7669;SDS011;3877;42.562;27.636;2023-08-06T05:13:31;13.27;;;7.15;;
7669;SDS011;3877;42.562;27.636;2023-08-06T05:15:58;18.00;;;6.93;;
7669;SDS011;3877;42.562;27.636;2023-08-06T05:18:25;14.82;;;6.65;;
7669;SDS011;3877;42.562;27.636;2023-08-06T05:20:54;15.95;;;6.57;;
7669;SDS011;3877;42.562;27.636;2023-08-06T05:23:21;10.57;;;6.60;;
7669;SDS011;3877;42.562;27.636;2023-08-06T05:25:48;13.93;;;7.32;;
7669;SDS011;3877;42.562;27.636;2023-08-06T05:28:16;12.68;;;5.63;;
7669;SDS011;3877;42.562;27.636;2023-08-06T05:30:43;12.05;;;5.38;;
7669;SDS011;3877;42.562;27.636;2023-08-06T05:33:10;10.93;;;5.50;;
7669;SDS011;3877;42.562;27.636;2023-08-06T05:35:38;12.13;;;5.80;;
7669;SDS011;3877;42.562;27.636;2023-08-06T05:38:08;10.48;;;5.57;;
7669;SDS011;3877;42.562;27.636;2023-08-06T05:40:36;10.10;;;5.18;;
7669;SDS011;3877;42.562;27.636;2023-08-06T05:43:03;10.10;;;5.20;;
7669;SDS011;3877;42.562;27.636;2023-08-06T05:45:30;9.98;;;5.50;;
7669;SDS011;3877;42.562;27.636;2023-08-06T05:47:58;11.05;;;5.55;;
7669;SDS011;3877;42.562;27.636;2023-08-06T05:50:25;13.48;;;5.78;;
7669;SDS011;3877;42.562;27.636;2023-08-06T05:52:52;17.25;;;5.68;;
7669;SDS011;3877;42.562;27.636;2023-08-06T05:55:21;13.25;;;5.72;;
7669;SDS011;3877;42.562;27.636;2023-08-06T05:57:48;10.00;;;5.55;;
7669;SDS011;3877;42.562;27.636;2023-08-06T06:00:17;13.10;;;6.20;;
7669;SDS011;3877;42.562;27.636;2023-08-06T06:02:45;9.63;;;5.72;;
7669;SDS011;3877;42.562;27.636;2023-08-06T06:05:12;8.93;;;5.75;;
7669;SDS011;3877;42.562;27.636;2023-08-06T06:07:40;9.77;;;5.40;;
7669;SDS011;3877;42.562;27.636;2023-08-06T06:10:07;11.45;;;5.82;;
7669;SDS011;3877;42.562;27.636;2023-08-06T06:12:37;9.50;;;5.72;;
7669;SDS011;3877;42.562;27.636;2023-08-06T06:15:05;11.70;;;5.43;;
7669;SDS011;3877;42.562;27.636;2023-08-06T06:17:33;18.08;;;5.55;;
7669;SDS011;3877;42.562;27.636;2023-08-06T06:20:00;10.20;;;5.50;;
7669;SDS011;3877;42.562;27.636;2023-08-06T06:22:29;8.27;;;5.20;;
7669;SDS011;3877;42.562;27.636;2023-08-06T06:24:56;10.57;;;5.10;;
7669;SDS011;3877;42.562;27.636;2023-08-06T06:27:23;13.27;;;5.63;;
7669;SDS011;3877;42.562;27.636;2023-08-06T06:29:52;10.23;;;4.95;;
7669;SDS011;3877;42.562;27.636;2023-08-06T06:32:21;11.18;;;5.03;;
7669;SDS011;3877;42.562;27.636;2023-08-06T06:34:49;9.68;;;5.82;;
7669;SDS011;3877;42.562;27.636;2023-08-06T06:37:16;13.88;;;6.03;;
7669;SDS011;3877;42.562;27.636;2023-08-06T06:39:43;13.35;;;5.88;;
7669;SDS011;3877;42.562;27.636;2023-08-06T06:42:10;10.35;;;5.57;;
7669;SDS011;3877;42.562;27.636;2023-08-06T06:44:38;10.63;;;5.60;;
7669;SDS011;3877;42.562;27.636;2023-08-06T06:47:07;10.30;;;5.82;;
7669;SDS011;3877;42.562;27.636;2023-08-06T06:49:34;14.48;;;6.82;;
7669;SDS011;3877;42.562;27.636;2023-08-06T06:52:01;8.95;;;5.32;;
7669;SDS011;3877;42.562;27.636;2023-08-06T06:54:29;11.75;;;5.95;;
7669;SDS011;3877;42.562;27.636;2023-08-06T06:56:57;10.63;;;4.95;;
7669;SDS011;3877;42.562;27.636;2023-08-06T06:59:24;13.45;;;5.45;;
7669;SDS011;3877;42.562;27.636;2023-08-06T07:01:51;13.57;;;5.97;;
7669;SDS011;3877;42.562;27.636;2023-08-06T07:04:20;14.52;;;5.75;;
7669;SDS011;3877;42.562;27.636;2023-08-06T07:06:47;8.15;;;5.53;;
7669;SDS011;3877;42.562;27.636;2023-08-06T07:09:15;10.98;;;5.55;;
7669;SDS011;3877;42.562;27.636;2023-08-06T07:11:42;8.93;;;5.07;;
7669;SDS011;3877;42.562;27.636;2023-08-06T07:14:09;8.85;;;5.57;;
7669;SDS011;3877;42.562;27.636;2023-08-06T07:16:37;13.85;;;5.80;;
7669;SDS011;3877;42.562;27.636;2023-08-06T07:19:04;13.25;;;5.38;;
7669;SDS011;3877;42.562;27.636;2023-08-06T07:21:33;10.88;;;5.55;;
7669;SDS011;3877;42.562;27.636;2023-08-06T07:24:00;5.55;;;4.90;;
7669;SDS011;3877;42.562;27.636;2023-08-06T07:26:27;10.85;;;5.80;;
7669;SDS011;3877;42.562;27.636;2023-08-06T07:28:54;8.80;;;5.43;;
7669;SDS011;3877;42.562;27.636;2023-08-06T07:31:21;11.20;;;5.93;;
7669;SDS011;3877;42.562;27.636;2023-08-06T07:33:49;10.30;;;6.28;;
7669;SDS011;3877;42.562;27.636;2023-08-06T07:36:16;13.07;;;6.15;;
7669;SDS011;3877;42.562;27.636;2023-08-06T07:38:44;15.38;;;6.63;;
7669;SDS011;3877;42.562;27.636;2023-08-06T07:41:14;11.18;;;5.72;;
7669;SDS011;3877;42.562;27.636;2023-08-06T07:43:41;13.13;;;6.80;;
7669;SDS011;3877;42.562;27.636;2023-08-06T07:46:09;9.15;;;6.18;;
7669;SDS011;3877;42.562;27.636;2023-08-06T07:48:37;14.90;;;7.05;;
7669;SDS011;3877;42.562;27.636;2023-08-06T07:51:04;15.20;;;6.78;;
7669;SDS011;3877;42.562;27.636;2023-08-06T07:53:32;14.00;;;6.95;;
7669;SDS011;3877;42.562;27.636;2023-08-06T07:56:00;10.68;;;7.10;;
7669;SDS011;3877;42.562;27.636;2023-08-06T07:58:28;19.08;;;6.93;;
7669;SDS011;3877;42.562;27.636;2023-08-06T08:00:57;11.50;;;6.70;;
7669;SDS011;3877;42.562;27.636;2023-08-06T08:03:24;15.65;;;6.40;;
7669;SDS011;3877;42.562;27.636;2023-08-06T08:05:53;10.48;;;6.15;;
7669;SDS011;3877;42.562;27.636;2023-08-06T08:08:22;12.50;;;7.32;;
7669;SDS011;3877;42.562;27.636;2023-08-06T08:10:50;11.82;;;6.35;;
7669;SDS011;3877;42.562;27.636;2023-08-06T08:13:18;14.20;;;7.00;;
7669;SDS011;3877;42.562;27.636;2023-08-06T08:15:46;9.93;;;6.60;;
7669;SDS011;3877;42.562;27.636;2023-08-06T08:18:13;12.70;;;6.57;;
7669;SDS011;3877;42.562;27.636;2023-08-06T08:20:40;10.23;;;6.40;;
7669;SDS011;3877;42.562;27.636;2023-08-06T08:23:07;12.85;;;6.07;;
7669;SDS011;3877;42.562;27.636;2023-08-06T08:25:35;15.48;;;6.28;;
7669;SDS011;3877;42.562;27.636;2023-08-06T08:28:02;11.55;;;6.30;;
7669;SDS011;3877;42.562;27.636;2023-08-06T08:30:30;10.43;;;6.90;;
7669;SDS011;3877;42.562;27.636;2023-08-06T08:32:58;11.90;;;6.53;;
7669;SDS011;3877;42.562;27.636;2023-08-06T08:35:25;8.40;;;5.95;;
7669;SDS011;3877;42.562;27.636;2023-08-06T08:37:52;10.88;;;6.95;;
7669;SDS011;3877;42.562;27.636;2023-08-06T08:40:19;11.35;;;6.60;;
7669;SDS011;3877;42.562;27.636;2023-08-06T08:42:49;14.13;;;6.72;;
7669;SDS011;3877;42.562;27.636;2023-08-06T08:45:17;17.42;;;7.03;;
7669;SDS011;3877;42.562;27.636;2023-08-06T08:47:49;11.48;;;6.90;;
7669;SDS011;3877;42.562;27.636;2023-08-06T08:50:16;9.23;;;6.60;;
7669;SDS011;3877;42.562;27.636;2023-08-06T08:52:45;11.65;;;6.32;;
7669;SDS011;3877;42.562;27.636;2023-08-06T08:55:14;11.35;;;6.43;;
7669;SDS011;3877;42.562;27.636;2023-08-06T09:04:26;11.05;;;6.53;;
7669;SDS011;3877;42.562;27.636;2023-08-06T09:06:57;11.90;;;7.05;;
7669;SDS011;3877;42.562;27.636;2023-08-06T09:09:26;12.60;;;6.82;;
7669;SDS011;3877;42.562;27.636;2023-08-06T09:12:00;14.48;;;7.75;;
7669;SDS011;3877;42.562;27.636;2023-08-06T09:14:28;12.02;;;6.75;;
7669;SDS011;3877;42.562;27.636;2023-08-06T09:16:55;12.07;;;6.93;;
7669;SDS011;3877;42.562;27.636;2023-08-06T09:19:23;12.57;;;6.60;;
7669;SDS011;3877;42.562;27.636;2023-08-06T09:21:54;11.73;;;7.40;;
7669;SDS011;3877;42.562;27.636;2023-08-06T09:24:22;13.13;;;7.07;;
7669;SDS011;3877;42.562;27.636;2023-08-06T09:26:51;16.08;;;7.38;;
7669;SDS011;3877;42.562;27.636;2023-08-06T09:29:19;17.92;;;8.10;;
7669;SDS011;3877;42.562;27.636;2023-08-06T09:31:47;11.00;;;6.13;;
7669;SDS011;3877;42.562;27.636;2023-08-06T09:34:17;16.80;;;7.13;;
7669;SDS011;3877;42.562;27.636;2023-08-06T09:36:46;12.10;;;7.32;;
7669;SDS011;3877;42.562;27.636;2023-08-06T09:39:16;12.85;;;6.60;;
7669;SDS011;3877;42.562;27.636;2023-08-06T09:41:45;14.23;;;7.10;;
7669;SDS011;3877;42.562;27.636;2023-08-06T09:44:17;12.55;;;6.90;;
7669;SDS011;3877;42.562;27.636;2023-08-06T09:46:48;9.75;;;6.57;;
7669;SDS011;3877;42.562;27.636;2023-08-06T09:49:16;10.63;;;6.40;;
7669;SDS011;3877;42.562;27.636;2023-08-06T09:51:46;16.77;;;6.68;;
7669;SDS011;3877;42.562;27.636;2023-08-06T09:54:16;11.25;;;6.70;;
7669;SDS011;3877;42.562;27.636;2023-08-06T09:56:43;12.20;;;6.40;;
7669;SDS011;3877;42.562;27.636;2023-08-06T09:59:11;11.93;;;6.70;;
7669;SDS011;3877;42.562;27.636;2023-08-06T10:01:38;10.30;;;6.50;;
7669;SDS011;3877;42.562;27.636;2023-08-06T10:04:06;14.88;;;6.70;;
7669;SDS011;3877;42.562;27.636;2023-08-06T10:06:35;18.10;;;6.82;;
7669;SDS011;3877;42.562;27.636;2023-08-06T10:09:04;11.75;;;6.55;;
7669;SDS011;3877;42.562;27.636;2023-08-06T10:11:32;10.82;;;6.75;;
7669;SDS011;3877;42.562;27.636;2023-08-06T10:14:02;13.23;;;7.13;;
7669;SDS011;3877;42.562;27.636;2023-08-06T10:16:33;11.98;;;7.00;;
7669;SDS011;3877;42.562;27.636;2023-08-06T10:19:01;11.57;;;6.82;;
7669;SDS011;3877;42.562;27.636;2023-08-06T10:21:31;11.07;;;6.85;;
7669;SDS011;3877;42.562;27.636;2023-08-06T10:23:58;12.50;;;6.53;;
7669;SDS011;3877;42.562;27.636;2023-08-06T10:26:28;11.68;;;7.53;;
7669;SDS011;3877;42.562;27.636;2023-08-06T10:28:55;11.82;;;6.65;;
7669;SDS011;3877;42.562;27.636;2023-08-06T10:34:21;9.70;;;6.93;;
7669;SDS011;3877;42.562;27.636;2023-08-06T10:36:48;10.98;;;7.43;;
7669;SDS011;3877;42.562;27.636;2023-08-06T10:39:16;10.75;;;7.25;;
7669;SDS011;3877;42.562;27.636;2023-08-06T10:41:45;18.50;;;7.40;;
7669;SDS011;3877;42.562;27.636;2023-08-06T10:44:13;23.33;;;8.63;;
7669;SDS011;3877;42.562;27.636;2023-08-06T10:46:41;11.68;;;7.18;;
7669;SDS011;3877;42.562;27.636;2023-08-06T10:49:08;16.55;;;7.90;;
7669;SDS011;3877;42.562;27.636;2023-08-06T10:51:36;13.07;;;7.38;;
7669;SDS011;3877;42.562;27.636;2023-08-06T10:54:04;14.45;;;7.50;;
7669;SDS011;3877;42.562;27.636;2023-08-06T10:56:31;19.00;;;7.85;;
7669;SDS011;3877;42.562;27.636;2023-08-06T10:59:08;13.50;;;7.22;;
7669;SDS011;3877;42.562;27.636;2023-08-06T11:01:36;13.90;;;7.70;;
7669;SDS011;3877;42.562;27.636;2023-08-06T11:04:05;16.40;;;8.32;;
7669;SDS011;3877;42.562;27.636;2023-08-06T11:06:32;17.27;;;8.05;;
7669;SDS011;3877;42.562;27.636;2023-08-06T11:09:01;13.43;;;7.60;;
7669;SDS011;3877;42.562;27.636;2023-08-06T11:11:28;18.38;;;8.25;;
7669;SDS011;3877;42.562;27.636;2023-08-06T11:13:55;23.70;;;4.50;;
7669;SDS011;3877;42.562;27.636;2023-08-06T11:16:24;27.45;;;3.40;;
7669;SDS011;3877;42.562;27.636;2023-08-06T11:18:51;27.27;;;4.93;;
7669;SDS011;3877;42.562;27.636;2023-08-06T11:21:19;33.28;;;4.32;;
7669;SDS011;3877;42.562;27.636;2023-08-06T11:23:48;40.30;;;4.25;;
7669;SDS011;3877;42.562;27.636;2023-08-06T11:26:18;9.90;;;3.08;;
7669;SDS011;3877;42.562;27.636;2023-08-06T11:28:46;10.32;;;2.60;;
7669;SDS011;3877;42.562;27.636;2023-08-06T11:31:18;9.50;;;3.35;;
7669;SDS011;3877;42.562;27.636;2023-08-06T11:33:47;7.20;;;2.38;;
7669;SDS011;3877;42.562;27.636;2023-08-06T11:36:14;7.07;;;2.50;;
7669;SDS011;3877;42.562;27.636;2023-08-06T11:38:42;7.38;;;2.60;;
7669;SDS011;3877;42.562;27.636;2023-08-06T11:41:09;8.32;;;3.03;;
7669;SDS011;3877;42.562;27.636;2023-08-06T11:43:38;13.00;;;3.67;;
7669;SDS011;3877;42.562;27.636;2023-08-06T11:46:05;17.02;;;3.33;;
7669;SDS011;3877;42.562;27.636;2023-08-06T11:48:33;17.45;;;3.85;;
7669;SDS011;3877;42.562;27.636;2023-08-06T11:51:22;12.23;;;3.97;;
7669;SDS011;3877;42.562;27.636;2023-08-06T11:53:49;11.05;;;3.53;;
7669;SDS011;3877;42.562;27.636;2023-08-06T11:56:16;8.80;;;3.53;;
7669;SDS011;3877;42.562;27.636;2023-08-06T11:58:44;7.85;;;3.70;;
7669;SDS011;3877;42.562;27.636;2023-08-06T12:01:11;7.40;;;3.63;;
7669;SDS011;3877;42.562;27.636;2023-08-06T12:03:40;7.88;;;3.63;;
7669;SDS011;3877;42.562;27.636;2023-08-06T12:06:08;7.75;;;3.67;;
7669;SDS011;3877;42.562;27.636;2023-08-06T12:08:36;7.63;;;4.40;;
7669;SDS011;3877;42.562;27.636;2023-08-06T12:11:03;9.13;;;4.40;;
7669;SDS011;3877;42.562;27.636;2023-08-06T12:13:30;13.32;;;4.38;;
7669;SDS011;3877;42.562;27.636;2023-08-06T12:15:57;11.95;;;4.72;;
7669;SDS011;3877;42.562;27.636;2023-08-06T12:18:25;11.73;;;4.72;;
7669;SDS011;3877;42.562;27.636;2023-08-06T12:20:52;10.48;;;4.47;;
7669;SDS011;3877;42.562;27.636;2023-08-06T12:23:21;11.10;;;4.70;;
7669;SDS011;3877;42.562;27.636;2023-08-06T12:25:48;9.65;;;4.40;;
7669;SDS011;3877;42.562;27.636;2023-08-06T12:28:16;8.35;;;4.57;;
7669;SDS011;3877;42.562;27.636;2023-08-06T12:30:43;11.48;;;4.82;;
7669;SDS011;3877;42.562;27.636;2023-08-06T12:33:10;10.60;;;4.88;;
7669;SDS011;3877;42.562;27.636;2023-08-06T12:35:37;13.80;;;4.70;;
7669;SDS011;3877;42.562;27.636;2023-08-06T12:38:05;10.70;;;4.40;;
7669;SDS011;3877;42.562;27.636;2023-08-06T12:40:33;6.97;;;4.00;;
7669;SDS011;3877;42.562;27.636;2023-08-06T12:43:00;9.95;;;4.43;;
7669;SDS011;3877;42.562;27.636;2023-08-06T12:45:28;6.07;;;4.07;;
7669;SDS011;3877;42.562;27.636;2023-08-06T12:47:55;8.43;;;4.35;;
7669;SDS011;3877;42.562;27.636;2023-08-06T12:50:22;9.27;;;4.30;;
7669;SDS011;3877;42.562;27.636;2023-08-06T12:52:49;11.27;;;4.15;;
7669;SDS011;3877;42.562;27.636;2023-08-06T12:55:17;9.32;;;4.07;;
7669;SDS011;3877;42.562;27.636;2023-08-06T12:57:45;11.57;;;4.25;;
7669;SDS011;3877;42.562;27.636;2023-08-06T13:00:13;7.50;;;4.15;;
7669;SDS011;3877;42.562;27.636;2023-08-06T13:02:40;9.00;;;4.40;;
7669;SDS011;3877;42.562;27.636;2023-08-06T13:05:07;6.13;;;4.15;;
7669;SDS011;3877;42.562;27.636;2023-08-06T13:07:35;9.30;;;4.43;;
7669;SDS011;3877;42.562;27.636;2023-08-06T13:10:02;12.48;;;4.20;;
7669;SDS011;3877;42.562;27.636;2023-08-06T13:12:30;8.30;;;4.07;;
7669;SDS011;3877;42.562;27.636;2023-08-06T13:14:58;6.00;;;3.60;;
7669;SDS011;3877;42.562;27.636;2023-08-06T13:17:25;11.02;;;4.25;;
7669;SDS011;3877;42.562;27.636;2023-08-06T13:19:53;18.92;;;6.80;;
7669;SDS011;3877;42.562;27.636;2023-08-06T13:22:20;8.63;;;4.10;;
7669;SDS011;3877;42.562;27.636;2023-08-06T13:24:47;6.97;;;3.75;;
7669;SDS011;3877;42.562;27.636;2023-08-06T13:27:14;7.50;;;3.88;;
7669;SDS011;3877;42.562;27.636;2023-08-06T13:29:41;9.20;;;3.20;;
7669;SDS011;3877;42.562;27.636;2023-08-06T13:32:10;4.93;;;3.25;;
7669;SDS011;3877;42.562;27.636;2023-08-06T13:34:37;6.28;;;3.50;;
7669;SDS011;3877;42.562;27.636;2023-08-06T13:37:04;10.77;;;4.28;;
7669;SDS011;3877;42.562;27.636;2023-08-06T13:39:32;7.13;;;4.15;;
7669;SDS011;3877;42.562;27.636;2023-08-06T13:41:59;8.65;;;4.15;;
7669;SDS011;3877;42.562;27.636;2023-08-06T13:44:26;8.15;;;3.90;;
7669;SDS011;3877;42.562;27.636;2023-08-06T13:46:54;7.25;;;3.80;;
7669;SDS011;3877;42.562;27.636;2023-08-06T13:49:22;7.05;;;3.80;;
7669;SDS011;3877;42.562;27.636;2023-08-06T13:51:50;8.35;;;4.22;;
7669;SDS011;3877;42.562;27.636;2023-08-06T13:54:17;6.72;;;4.13;;
7669;SDS011;3877;42.562;27.636;2023-08-06T13:56:46;6.38;;;4.05;;
7669;SDS011;3877;42.562;27.636;2023-08-06T13:59:15;7.65;;;4.53;;
7669;SDS011;3877;42.562;27.636;2023-08-06T14:01:42;8.57;;;4.30;;
7669;SDS011;3877;42.562;27.636;2023-08-06T14:04:10;8.40;;;4.38;;
7669;SDS011;3877;42.562;27.636;2023-08-06T14:06:38;5.85;;;3.90;;
7669;SDS011;3877;42.562;27.636;2023-08-06T14:09:05;9.88;;;4.43;;
7669;SDS011;3877;42.562;27.636;2023-08-06T14:11:33;6.82;;;4.22;;
7669;SDS011;3877;42.562;27.636;2023-08-06T14:14:00;5.65;;;3.70;;
7669;SDS011;3877;42.562;27.636;2023-08-06T14:16:27;7.60;;;3.90;;
7669;SDS011;3877;42.562;27.636;2023-08-06T14:18:55;7.95;;;4.05;;
7669;SDS011;3877;42.562;27.636;2023-08-06T14:21:22;7.28;;;4.22;;
7669;SDS011;3877;42.562;27.636;2023-08-06T14:23:50;7.50;;;3.70;;
7669;SDS011;3877;42.562;27.636;2023-08-06T14:26:18;7.05;;;3.90;;
7669;SDS011;3877;42.562;27.636;2023-08-06T14:28:45;7.40;;;4.15;;
7669;SDS011;3877;42.562;27.636;2023-08-06T14:31:12;7.25;;;3.80;;
7669;SDS011;3877;42.562;27.636;2023-08-06T14:33:39;4.15;;;3.60;;
7669;SDS011;3877;42.562;27.636;2023-08-06T14:36:06;9.52;;;4.25;;
7669;SDS011;3877;42.562;27.636;2023-08-06T14:38:33;7.82;;;4.28;;
7669;SDS011;3877;42.562;27.636;2023-08-06T14:41:02;6.97;;;3.65;;
7669;SDS011;3877;42.562;27.636;2023-08-06T14:43:29;5.13;;;3.90;;
7669;SDS011;3877;42.562;27.636;2023-08-06T14:45:57;6.45;;;4.00;;
7669;SDS011;3877;42.562;27.636;2023-08-06T14:48:24;6.85;;;4.38;;
7669;SDS011;3877;42.562;27.636;2023-08-06T14:50:51;7.35;;;4.47;;
7669;SDS011;3877;42.562;27.636;2023-08-06T14:53:18;7.53;;;4.35;;
7669;SDS011;3877;42.562;27.636;2023-08-06T14:55:46;6.53;;;4.72;;
7669;SDS011;3877;42.562;27.636;2023-08-06T14:58:15;8.93;;;5.00;;
7669;SDS011;3877;42.562;27.636;2023-08-06T15:00:42;7.82;;;4.35;;
7669;SDS011;3877;42.562;27.636;2023-08-06T15:03:09;8.57;;;6.43;;